createdAt,value
2022-11-17T00:00:18.425Z,13.75
2022-11-17T00:02:45.599Z,13.69
2022-11-17T00:05:12.151Z,13.83
2022-11-17T00:07:38.835Z,13.85
2022-11-17T00:10:08.529Z,13.92
2022-11-17T00:12:56.938Z,13.97
2022-11-17T00:15:23.545Z,14.02
2022-11-17T00:18:10.080Z,14.07
2022-11-17T00:21:00.876Z,14.19
2022-11-17T00:23:46.999Z,14.13
2022-11-17T00:26:18.974Z,14.04
2022-11-17T00:28:45.888Z,14.14
2022-11-17T00:31:32.709Z,14.09
2022-11-17T00:34:09.123Z,14.13
2022-11-17T00:36:43.584Z,14.12
2022-11-17T00:39:11.207Z,14.14
2022-11-17T00:41:40.600Z,14.04
2022-11-17T00:44:10.594Z,14.09
2022-11-17T00:46:43.693Z,14.14
2022-11-17T00:49:11.527Z,14.19
2022-11-17T00:51:41.229Z,14.07
2022-11-17T00:54:13.367Z,14.05
2022-11-17T00:56:40.484Z,14.17
2022-11-17T00:59:10.177Z,13.96
2022-11-17T01:01:40.832Z,14.02
2022-11-17T01:04:10.325Z,14.13
2022-11-17T01:06:41.731Z,14.17
2022-11-17T01:09:23.036Z,14.12
2022-11-17T01:11:51.938Z,14.12
2022-11-17T01:14:23.759Z,14.08
2022-11-17T01:16:50.972Z,14.01
2022-11-17T01:19:19.152Z,13.97
2022-11-17T01:21:46.832Z,13.90
2022-11-17T01:24:16.121Z,13.76
2022-11-17T01:26:44.367Z,13.76
2022-11-17T01:29:17.112Z,13.70
2022-11-17T01:31:44.920Z,13.73
2022-11-17T01:34:12.241Z,13.74
2022-11-17T01:37:00.685Z,13.63
2022-11-17T01:39:29.218Z,13.77
2022-11-17T01:41:56.806Z,13.79
2022-11-17T01:44:41.821Z,13.77
2022-11-17T01:47:18.718Z,13.74
2022-11-17T01:49:45.813Z,13.68
2022-11-17T01:52:13.637Z,13.71
2022-11-17T01:54:43.835Z,13.64
2022-11-17T01:57:25.888Z,13.64
2022-11-17T01:59:59.248Z,13.64
2022-11-17T02:02:26.157Z,13.62
2022-11-17T02:05:48.224Z,13.54
2022-11-17T02:08:15.443Z,13.61
2022-11-17T02:10:51.303Z,13.43
2022-11-17T02:13:20.412Z,13.16
2022-11-17T02:15:47.047Z,13.20
2022-11-17T02:18:15.209Z,13.23
2022-11-17T02:20:51.412Z,13.22
2022-11-17T02:23:37.976Z,12.97
2022-11-17T02:26:07.454Z,13.11
2022-11-17T02:29:00.025Z,12.93
2022-11-17T02:32:03.049Z,13.06
2022-11-17T02:34:58.707Z,12.92
2022-11-17T02:37:52.414Z,12.90
2022-11-17T02:40:24.843Z,12.91
2022-11-17T02:43:17.663Z,12.84
2022-11-17T02:45:48.618Z,12.64
2022-11-17T02:48:22.318Z,12.74
2022-11-17T02:50:49.785Z,12.70
2022-11-17T02:53:16.716Z,12.60
2022-11-17T02:55:50.363Z,12.63
2022-11-17T02:58:16.888Z,12.62
2022-11-17T03:01:06.617Z,12.52
2022-11-17T03:03:54.718Z,12.51
2022-11-17T03:06:24.184Z,12.46
2022-11-17T03:09:06.217Z,12.43
2022-11-17T03:11:52.521Z,12.21
2022-11-17T03:14:52.095Z,12.34
2022-11-17T03:17:30.501Z,12.23
2022-11-17T03:20:16.693Z,12.24
2022-11-17T03:22:48.692Z,12.21
2022-11-17T03:25:23.164Z,12.18
2022-11-17T03:27:55.676Z,12.01
2022-11-17T03:30:24.476Z,12.16
2022-11-17T03:32:56.902Z,12.20
2022-11-17T03:35:27.498Z,12.15
2022-11-17T03:37:59.023Z,12.24
2022-11-17T03:40:29.333Z,12.26
2022-11-17T03:42:59.835Z,12.24
2022-11-17T03:45:34.037Z,12.21
2022-11-17T03:48:23.429Z,12.12
2022-11-17T03:51:04.637Z,12.05
2022-11-17T03:53:32.102Z,12.26
2022-11-17T03:56:36.465Z,12.30
2022-11-17T03:59:18.494Z,12.13
2022-11-17T04:01:45.103Z,12.12
2022-11-17T04:04:20.062Z,12.07
2022-11-17T04:06:48.684Z,12.20
2022-11-17T04:09:17.673Z,12.16
2022-11-17T04:12:09.672Z,12.05
2022-11-17T04:14:54.410Z,12.13
2022-11-17T04:17:21.287Z,12.16
2022-11-17T04:19:49.645Z,12.16
2022-11-17T04:22:16.119Z,12.13
2022-11-17T04:24:42.598Z,12.19
2022-11-17T04:27:27.948Z,12.27
2022-11-17T04:29:54.488Z,12.25
2022-11-17T04:32:20.982Z,12.19
2022-11-17T04:34:50.549Z,12.14
2022-11-17T04:37:23.332Z,12.03
2022-11-17T04:39:52.290Z,12.23
2022-11-17T04:42:21.537Z,12.20
2022-11-17T04:44:48.038Z,12.13
2022-11-17T04:47:14.748Z,12.12
2022-11-17T04:49:41.339Z,12.18
2022-11-17T04:52:08.001Z,12.27
2022-11-17T04:54:34.916Z,12.31
2022-11-17T04:57:01.445Z,12.37
2022-11-17T04:59:28.070Z,12.28
2022-11-17T05:01:54.595Z,12.21
2022-11-17T05:04:40.779Z,12.26
2022-11-17T05:07:08.661Z,12.27
2022-11-17T05:09:35.314Z,12.19
2022-11-17T05:12:22.525Z,12.17
2022-11-17T05:14:52.887Z,12.26
2022-11-17T05:17:19.417Z,12.14
2022-11-17T05:19:48.360Z,12.05
2022-11-17T05:22:38.784Z,12.19
2022-11-17T05:25:06.395Z,12.11
2022-11-17T05:27:34.090Z,12.20
2022-11-17T05:30:01.654Z,12.11
2022-11-17T05:32:28.193Z,12.09
2022-11-17T05:34:54.761Z,12.11
2022-11-17T05:37:21.970Z,11.97
2022-11-17T05:39:48.452Z,12.04
2022-11-17T05:42:15.056Z,11.93
2022-11-17T05:44:41.570Z,11.87
2022-11-17T05:47:08.070Z,11.92
2022-11-17T05:49:34.579Z,11.69
2022-11-17T05:52:01.062Z,11.94
2022-11-17T05:54:27.707Z,11.70
2022-11-17T05:57:06.991Z,11.90
2022-11-17T05:59:45.297Z,11.90
2022-11-17T06:02:17.488Z,11.88
2022-11-17T06:04:44.291Z,11.83
2022-11-17T06:07:11.165Z,12.09
2022-11-17T06:09:41.462Z,11.91
2022-11-17T06:12:08.573Z,11.88
2022-11-17T06:14:35.684Z,11.92
2022-11-17T06:17:07.626Z,11.71
2022-11-17T06:19:39.981Z,11.61
2022-11-17T06:22:12.599Z,11.61
2022-11-17T06:24:44.648Z,11.70
2022-11-17T06:27:14.159Z,11.67
2022-11-17T06:29:44.620Z,11.78
2022-11-17T06:32:14.673Z,11.61
2022-11-17T06:34:47.004Z,11.68
2022-11-17T06:37:17.733Z,11.73
2022-11-17T06:39:44.908Z,11.76
2022-11-17T06:42:12.110Z,11.51
2022-11-17T06:44:39.289Z,11.78
2022-11-17T06:47:06.054Z,11.78
2022-11-17T06:49:32.553Z,11.79
2022-11-17T06:51:59.071Z,11.65
2022-11-17T06:54:27.856Z,11.52
2022-11-17T06:56:57.558Z,11.72
2022-11-17T06:59:24.131Z,11.69
2022-11-17T07:01:50.692Z,11.64
2022-11-17T07:04:17.459Z,11.70
2022-11-17T07:06:44.010Z,11.80
2022-11-17T07:09:10.535Z,11.74
2022-11-17T07:11:37.185Z,11.85
2022-11-17T07:14:03.868Z,11.80
2022-11-17T07:16:31.112Z,11.96
2022-11-17T07:18:59.538Z,12.03
2022-11-17T07:21:26.361Z,12.19
2022-11-17T07:23:52.932Z,12.19
2022-11-17T07:26:19.506Z,12.35
2022-11-17T07:28:46.036Z,12.37
2022-11-17T07:31:12.604Z,12.24
2022-11-17T07:33:41.117Z,12.43
2022-11-17T07:36:10.752Z,12.42
2022-11-17T07:38:39.079Z,12.20
2022-11-17T07:41:07.015Z,12.28
2022-11-17T07:43:34.967Z,12.26
2022-11-17T07:46:06.673Z,12.31
2022-11-17T07:48:35.263Z,12.34
2022-11-17T07:51:03.975Z,12.34
2022-11-17T07:53:35.288Z,12.30
2022-11-17T07:56:05.888Z,12.36
2022-11-17T07:58:33.569Z,12.24
2022-11-17T08:01:12.899Z,12.34
2022-11-17T08:03:39.826Z,12.27
2022-11-17T08:06:08.441Z,12.34
2022-11-17T08:08:36.269Z,12.23
2022-11-17T08:11:07.969Z,12.47
2022-11-17T08:13:35.688Z,12.41
2022-11-17T08:16:07.184Z,12.58
2022-11-17T08:18:35.315Z,12.64
2022-11-17T08:21:07.505Z,12.72
2022-11-17T08:23:34.522Z,12.60
2022-11-17T08:26:06.025Z,12.42
2022-11-17T08:28:36.605Z,12.05
2022-11-17T08:31:05.205Z,12.06
2022-11-17T08:33:34.444Z,11.90
2022-11-17T08:36:04.091Z,11.90
2022-11-17T08:38:31.347Z,11.80
2022-11-17T08:40:59.269Z,11.86
2022-11-17T08:43:25.858Z,11.70
2022-11-17T08:45:52.637Z,11.38
2022-11-17T08:48:19.508Z,11.21
2022-11-17T08:50:46.407Z,10.94
2022-11-17T08:53:15.098Z,10.88
2022-11-17T08:55:42.390Z,10.85
2022-11-17T08:58:10.146Z,10.82
2022-11-17T09:00:36.695Z,10.93
2022-11-17T09:03:07.543Z,10.89
2022-11-17T09:05:38.584Z,11.76
2022-11-17T09:08:22.911Z,13.07
2022-11-17T09:10:52.058Z,13.79
2022-11-17T09:13:18.966Z,14.50
2022-11-17T09:15:45.561Z,15.17
2022-11-17T09:18:12.177Z,15.81
2022-11-17T09:20:44.246Z,16.19
2022-11-17T09:23:12.150Z,16.62
2022-11-17T09:25:38.644Z,17.07
2022-11-17T09:28:05.202Z,17.36
2022-11-17T09:30:34.907Z,17.31
2022-11-17T09:33:05.305Z,17.34
2022-11-17T09:35:36.046Z,17.80
2022-11-17T09:38:06.286Z,18.52
2022-11-17T09:40:38.642Z,18.97
2022-11-17T09:43:25.125Z,19.28
2022-11-17T09:45:55.974Z,19.42
2022-11-17T09:48:48.530Z,19.65
2022-11-17T09:51:20.392Z,20.05
2022-11-17T09:53:57.467Z,20.39
2022-11-17T09:59:27.513Z,20.89
2022-11-17T10:01:54.155Z,20.97
2022-11-17T10:04:20.737Z,20.88
2022-11-17T10:06:50.772Z,20.97
2022-11-17T10:09:28.466Z,20.98
2022-11-17T10:12:07.594Z,21.20
2022-11-17T10:14:41.879Z,21.04
2022-11-17T10:17:15.338Z,20.60
2022-11-17T10:19:48.888Z,20.23
2022-11-17T10:22:42.100Z,18.96
2022-11-17T10:25:38.289Z,17.37
2022-11-17T10:28:23.176Z,17.21
2022-11-17T10:31:13.501Z,17.18
2022-11-17T10:33:51.234Z,17.07
2022-11-17T10:36:27.463Z,17.13
2022-11-17T10:38:58.203Z,16.88
2022-11-17T10:41:41.640Z,17.12
2022-11-17T10:44:44.799Z,16.89
2022-11-17T10:47:25.267Z,16.82
2022-11-17T10:50:11.933Z,16.43
2022-11-17T10:52:38.543Z,16.24
2022-11-17T10:55:23.140Z,16.01
2022-11-17T10:58:27.004Z,15.71
2022-11-17T11:01:03.545Z,15.60
2022-11-17T11:03:35.756Z,15.55
2022-11-17T11:06:23.601Z,15.61
2022-11-17T11:09:16.662Z,15.52
2022-11-17T11:11:46.967Z,15.41
2022-11-17T11:14:48.960Z,15.71
2022-11-17T11:17:17.539Z,15.66
2022-11-17T11:19:51.581Z,15.39
2022-11-17T11:22:24.080Z,15.78
2022-11-17T11:25:10.069Z,15.57
2022-11-17T11:27:57.321Z,15.79
2022-11-17T11:30:23.977Z,15.62
2022-11-17T11:33:07.735Z,15.88
2022-11-17T11:35:49.340Z,15.90
2022-11-17T11:38:40.695Z,15.78
2022-11-17T11:41:33.578Z,15.86
2022-11-17T11:44:00.092Z,15.84
2022-11-17T11:47:08.137Z,15.78
2022-11-17T11:49:55.559Z,15.58
2022-11-17T11:52:27.345Z,15.42
2022-11-17T11:54:56.196Z,15.11
2022-11-17T11:57:33.834Z,15.11
2022-11-17T12:00:07.099Z,14.92
2022-11-17T12:02:55.785Z,14.82
2022-11-17T12:05:34.754Z,14.73
2022-11-17T12:08:10.176Z,14.64
2022-11-17T12:10:53.886Z,14.53
2022-11-17T12:13:23.974Z,14.52
2022-11-17T12:15:54.026Z,14.28
2022-11-17T12:18:20.546Z,14.29
2022-11-17T12:21:11.796Z,14.21
2022-11-17T12:23:46.993Z,14.34
2022-11-17T12:26:28.068Z,14.30
2022-11-17T12:29:19.393Z,14.22
2022-11-17T12:31:55.975Z,14.06
2022-11-17T12:34:35.451Z,14.19
2022-11-17T12:37:14.709Z,14.05
2022-11-17T12:40:04.143Z,13.87
2022-11-17T12:42:33.764Z,13.66
2022-11-17T12:45:04.924Z,13.37
2022-11-17T12:47:38.019Z,13.20
2022-11-17T12:50:19.722Z,13.06
2022-11-17T12:53:04.573Z,12.79
2022-11-17T12:55:48.980Z,12.63
2022-11-17T12:58:28.494Z,12.56
2022-11-17T13:01:17.587Z,12.67
2022-11-17T13:03:54.997Z,12.73
2022-11-17T13:06:35.356Z,12.62
2022-11-17T13:09:12.949Z,12.94
2022-11-17T13:11:39.686Z,12.87
2022-11-17T13:14:11.630Z,13.00
2022-11-17T13:16:48.463Z,12.79
2022-11-17T13:19:41.419Z,12.93
2022-11-17T13:22:11.066Z,12.94
2022-11-17T13:24:40.773Z,12.97
2022-11-17T13:27:27.171Z,13.05
2022-11-17T13:30:27.747Z,13.18
2022-11-17T13:32:56.286Z,13.18
2022-11-17T13:35:35.454Z,13.02
2022-11-17T13:38:22.726Z,13.26
2022-11-17T13:40:51.552Z,13.42
2022-11-17T13:43:20.699Z,13.52
2022-11-17T13:45:49.387Z,13.69
2022-11-17T13:48:42.060Z,13.68
2022-11-17T13:51:38.768Z,13.75
2022-11-17T13:54:11.624Z,13.85
2022-11-17T13:56:47.530Z,13.99
2022-11-17T13:59:28.601Z,13.95
2022-11-17T14:02:16.569Z,13.93
2022-11-17T14:05:14.453Z,13.98
2022-11-17T14:07:42.885Z,13.93
2022-11-17T14:10:21.431Z,13.85
2022-11-17T14:12:49.670Z,13.63
2022-11-17T14:15:28.590Z,13.84
2022-11-17T14:17:59.944Z,13.71
2022-11-17T14:20:35.949Z,13.83
2022-11-17T14:23:06.294Z,13.77
2022-11-17T14:25:40.250Z,13.68
2022-11-17T14:28:18.152Z,13.80
2022-11-17T14:30:48.850Z,13.81
2022-11-17T14:33:15.349Z,13.89
2022-11-17T14:35:42.891Z,13.82
2022-11-17T14:38:18.799Z,13.69
2022-11-17T14:40:45.582Z,13.86
2022-11-17T14:43:12.091Z,13.67
2022-11-17T14:45:38.678Z,13.44
2022-11-17T14:48:08.063Z,13.48
2022-11-17T14:50:35.774Z,13.42
2022-11-17T14:53:02.309Z,13.39
2022-11-17T14:55:28.825Z,13.37
2022-11-17T14:57:55.917Z,13.21
2022-11-17T15:00:22.506Z,13.01
2022-11-17T15:02:49.457Z,13.10
2022-11-17T15:05:16.550Z,13.06
2022-11-17T15:07:44.013Z,13.15
2022-11-17T15:10:11.823Z,13.51
2022-11-17T15:12:39.073Z,13.97
2022-11-17T15:15:07.686Z,14.46
2022-11-17T15:17:36.787Z,15.00
2022-11-17T15:20:06.393Z,15.25
2022-11-17T15:22:32.906Z,15.48
2022-11-17T15:24:59.613Z,15.37
2022-11-17T15:27:26.151Z,15.45
2022-11-17T15:29:52.683Z,15.32
2022-11-17T15:32:19.214Z,15.12
2022-11-17T15:34:46.096Z,14.73
2022-11-17T15:37:12.603Z,14.54
2022-11-17T15:39:39.093Z,14.35
2022-11-17T15:42:06.753Z,14.15
2022-11-17T15:44:35.811Z,14.00
2022-11-17T15:47:02.310Z,13.41
2022-11-17T15:49:28.836Z,13.27
2022-11-17T15:51:55.408Z,13.20
2022-11-17T15:54:23.428Z,12.94
2022-11-17T15:56:52.513Z,12.91
2022-11-17T15:59:19.600Z,13.05
2022-11-17T16:01:46.685Z,12.90
2022-11-17T16:04:15.967Z,12.72
2022-11-17T16:06:44.471Z,12.77
2022-11-17T16:09:12.061Z,12.68
2022-11-17T16:11:39.537Z,12.72
2022-11-17T16:14:07.046Z,12.73
2022-11-17T16:16:38.335Z,12.71
2022-11-17T16:19:07.881Z,12.51
2022-11-17T16:21:38.000Z,12.48
2022-11-17T16:24:08.364Z,12.46
2022-11-17T16:26:38.098Z,12.31
2022-11-17T16:29:08.927Z,12.27
2022-11-17T16:31:37.751Z,12.44
2022-11-17T16:34:10.574Z,12.19
2022-11-17T16:36:39.290Z,12.37
2022-11-17T16:39:12.705Z,12.31
2022-11-17T16:41:40.901Z,12.28
2022-11-17T16:44:13.369Z,12.34
2022-11-17T16:46:45.713Z,12.35
2022-11-17T16:49:15.393Z,12.33
2022-11-17T16:51:47.858Z,12.79
2022-11-17T16:54:14.758Z,12.76
2022-11-17T16:56:43.637Z,12.68
2022-11-17T16:59:11.281Z,12.81
2022-11-17T17:01:39.433Z,12.93
2022-11-17T17:04:10.180Z,12.78
2022-11-17T17:06:40.674Z,12.99
2022-11-17T17:09:08.918Z,13.10
2022-11-17T17:11:39.098Z,12.90
2022-11-17T17:14:11.875Z,13.34
2022-11-17T17:16:38.625Z,13.06
2022-11-17T17:19:13.597Z,13.15
2022-11-17T17:21:42.533Z,13.09
2022-11-17T17:24:10.181Z,13.08
2022-11-17T17:26:39.207Z,13.16
2022-11-17T17:29:09.590Z,13.38
2022-11-17T17:31:41.399Z,13.20
2022-11-17T17:34:08.886Z,13.00
2022-11-17T17:36:39.046Z,12.98
2022-11-17T17:39:06.797Z,12.95
2022-11-17T17:41:38.504Z,12.99
2022-11-17T17:44:13.245Z,13.09
2022-11-17T17:46:39.814Z,12.92
2022-11-17T17:49:07.137Z,12.75
2022-11-17T17:51:37.862Z,12.80
2022-11-17T17:54:07.982Z,12.63
2022-11-17T17:56:36.722Z,12.67
2022-11-17T17:59:06.558Z,12.30
2022-11-17T18:01:34.868Z,12.48
2022-11-17T18:04:05.553Z,12.54
2022-11-17T18:06:42.125Z,12.66
2022-11-17T18:09:10.929Z,12.52
2022-11-17T18:11:37.571Z,12.55
2022-11-17T18:14:08.002Z,12.65
2022-11-17T18:16:35.607Z,12.52
2022-11-17T18:19:05.721Z,12.69
2022-11-17T18:21:32.623Z,12.66
2022-11-17T18:24:01.299Z,12.71
2022-11-17T18:26:31.214Z,12.61
2022-11-17T18:29:02.090Z,12.49
2022-11-17T18:31:30.887Z,12.50
2022-11-17T18:34:00.679Z,12.46
2022-11-17T18:36:29.249Z,12.68
2022-11-17T18:38:58.467Z,12.70
2022-11-17T18:41:26.620Z,12.69
2022-11-17T18:43:55.385Z,12.40
2022-11-17T18:46:24.098Z,12.36
2022-11-17T18:48:52.264Z,12.48
2022-11-17T18:51:21.646Z,12.25
2022-11-17T18:53:49.894Z,11.95
2022-11-17T18:56:20.608Z,11.94
2022-11-17T18:58:47.449Z,11.80
2022-11-17T19:01:19.918Z,11.74
2022-11-17T19:03:49.569Z,11.69
2022-11-17T19:06:18.283Z,11.59
2022-11-17T19:08:45.520Z,11.45
2022-11-17T19:11:12.441Z,11.53
2022-11-17T19:13:41.625Z,11.55
2022-11-17T19:16:23.840Z,11.37
2022-11-17T19:18:55.229Z,11.59
2022-11-17T19:21:28.627Z,11.51
2022-11-17T19:23:58.452Z,11.27
2022-11-17T19:26:46.379Z,11.30
2022-11-17T19:29:30.782Z,11.09
2022-11-17T19:31:57.463Z,11.10
2022-11-17T19:34:23.988Z,11.24
2022-11-17T19:36:50.523Z,11.12
2022-11-17T19:39:20.477Z,10.93
2022-11-17T19:41:47.734Z,10.90
2022-11-17T19:44:14.349Z,10.70
2022-11-17T19:46:40.918Z,10.78
2022-11-17T19:49:08.204Z,10.82
2022-11-17T19:51:37.554Z,10.81
2022-11-17T19:54:07.824Z,10.66
2022-11-17T19:56:38.379Z,10.80
2022-11-17T19:59:13.987Z,10.65
2022-11-17T20:01:42.516Z,10.63
2022-11-17T20:04:09.216Z,10.63
2022-11-17T20:06:39.531Z,10.55
2022-11-17T20:09:10.949Z,10.58
2022-11-17T20:11:37.882Z,10.53
2022-11-17T20:14:08.924Z,10.52
2022-11-17T20:16:39.950Z,10.44
2022-11-17T20:19:06.746Z,10.42
2022-11-17T20:21:38.190Z,10.42
2022-11-17T20:24:08.261Z,10.36
2022-11-17T20:26:40.673Z,10.38
2022-11-17T20:29:07.378Z,10.44
2022-11-17T20:31:37.843Z,10.33
2022-11-17T20:34:09.232Z,10.07
2022-11-17T20:36:38.778Z,10.10
2022-11-17T20:39:08.262Z,10.33
2022-11-17T20:41:38.477Z,10.29
2022-11-17T20:44:23.828Z,10.01
2022-11-17T20:46:55.033Z,10.22
2022-11-17T20:49:23.099Z,10.51
2022-11-17T20:51:50.135Z,10.52
2022-11-17T20:54:16.653Z,10.77
2022-11-17T20:56:43.471Z,10.81
2022-11-17T20:59:10.065Z,10.78
2022-11-17T21:01:39.247Z,10.81
2022-11-17T21:04:10.855Z,10.81
2022-11-17T21:06:37.723Z,10.65
2022-11-17T21:09:08.324Z,10.49
2022-11-17T21:11:56.571Z,10.49
2022-11-17T21:14:26.068Z,10.44
2022-11-17T21:16:54.539Z,10.33
2022-11-17T21:19:21.827Z,10.45
2022-11-17T21:21:51.783Z,10.46
2022-11-17T21:24:18.316Z,10.31
2022-11-17T21:26:45.522Z,10.11
2022-11-17T21:29:12.030Z,10.31
2022-11-17T21:31:38.560Z,10.32
2022-11-17T21:34:07.683Z,10.57
2022-11-17T21:36:39.099Z,10.55
2022-11-17T21:39:09.206Z,10.47
2022-11-17T21:41:38.977Z,10.20
2022-11-17T21:44:11.685Z,10.15
2022-11-17T21:46:38.171Z,10.29
2022-11-17T21:49:07.606Z,10.13
2022-11-17T21:51:38.305Z,10.26
2022-11-17T21:54:07.985Z,10.19
2022-11-17T21:56:37.087Z,10.12
2022-11-17T21:59:09.620Z,10.17
2022-11-17T22:01:39.691Z,10.20
2022-11-17T22:04:10.147Z,10.13
2022-11-17T22:06:39.594Z,10.10
2022-11-17T22:09:08.242Z,10.00
2022-11-17T22:11:43.302Z,10.09
2022-11-17T22:14:12.529Z,9.99
2022-11-17T22:16:51.923Z,10.01
2022-11-17T22:19:20.930Z,10.01
2022-11-17T22:21:49.526Z,10.03
2022-11-17T22:24:16.751Z,10.03
2022-11-17T22:26:44.440Z,9.83
2022-11-17T22:29:19.668Z,9.88
2022-11-17T22:31:48.580Z,9.90
2022-11-17T22:34:16.036Z,9.77
2022-11-17T22:36:42.617Z,9.56
2022-11-17T22:39:12.473Z,9.68
2022-11-17T22:41:40.160Z,9.62
2022-11-17T22:44:06.920Z,9.50
2022-11-17T22:46:35.043Z,9.63
2022-11-17T22:49:01.563Z,9.58
2022-11-17T22:51:46.652Z,9.33
2022-11-17T22:54:13.256Z,9.45
2022-11-17T22:56:42.722Z,9.36
2022-11-17T22:59:12.056Z,9.35
2022-11-17T23:01:42.781Z,9.36
2022-11-17T23:04:12.779Z,9.48
2022-11-17T23:06:42.912Z,9.49
2022-11-17T23:09:12.868Z,9.50
2022-11-17T23:11:42.368Z,9.46
2022-11-17T23:14:13.878Z,9.47
2022-11-17T23:16:43.590Z,9.17
2022-11-17T23:19:14.185Z,9.44
2022-11-17T23:21:41.430Z,9.48
2022-11-17T23:24:10.664Z,9.20
2022-11-17T23:26:37.218Z,9.35
2022-11-17T23:29:03.763Z,9.59
2022-11-17T23:31:30.397Z,9.73
2022-11-17T23:33:56.928Z,9.78
2022-11-17T23:36:23.545Z,9.96
2022-11-17T23:38:51.234Z,9.95
2022-11-17T23:41:19.892Z,9.74
2022-11-17T23:43:49.286Z,9.73
2022-11-17T23:46:18.723Z,9.65
2022-11-17T23:48:45.840Z,9.51
2022-11-17T23:51:18.452Z,9.37
2022-11-17T23:53:46.689Z,9.36
2022-11-17T23:56:13.896Z,9.41
2022-11-17T23:58:44.760Z,9.17
